Aurora, CO (80011)

3:26 PM MDT on May 03, 2015 (GMT -0600)
CODOT | | Change Station
CLOSE
Current Station
Personal Weather Station
Location: Aurora, CO
Elevation: 5360 ft
Nearby Weather Stations

Elev 5360 ft 39.77 °N, 104.82 °W | Updated 59 minutes ago

Mostly Cloudy
Mostly Cloudy
73 °F
Feels Like 76 °F
N
4
Wind Variable Wind from ENE
Gusts 7.0 mph

Today
High -- | Low -- °F
--% Chance of Precip.
Yesterday
High -- | Low -- °F
Precip. -- in
5:57 AM 7:55 PM
Full, 100% visible
Pressure 29.81 in
Visibility 10.0 miles
Clouds Scattered Clouds 10000 ft
Mostly Cloudy 20000 ft
Heat Index 76 °F
Dew Point 34 °F
Humidity 23%
Rainfall in
Snow Depth Not available.
UV 5 out of 12
Pollen 9.90 out of 12
Air Quality Not available.
Flu Activity Sporadic
METAR KBKF 032058Z 07004KT 10SM SCT100 BKN200 21/02 A2998 RMK AO2A SLP094 T02140016 56004

More Conditions Fewer Conditions

Pressure 29.81 in
Visibility 10.0 miles
Clouds Scattered Clouds 10000 ft
Mostly Cloudy 20000 ft
Heat Index 76 °F
Dew Point 34 °F
Humidity 23%
Rainfall in
Snow Depth Not available.
UV 5 out of 12
Pollen 9.90 out of 12
Air Quality Not available.
Flu Activity Sporadic
METAR KBKF 032058Z 07004KT 10SM SCT100 BKN200 21/02 A2998 RMK AO2A SLP094 T02140016 56004

More Conditions Fewer Conditions

Nepal has a long way to go to dig out and rebuild from a devastating earthquake. We have teamed up with several charities and organizations to make contributing to the relief effort as easy as possible.
How you can help: Portlight Strategies | Red Cross

10-Day Weather Forecast

Almanac

Astronomy

May. 03, 2015 Rise Set
Actual Time
Civil Twilight
Nautical Twilight
Astronomical Twilight
Moon
Length of Visible Light
Length of Day
Tomorrow will be .
, % of the Moon is Illuminated

Today's Extremes

State Highs State Lows

Community

WunderPhotos

Upload Photos

1,818,374 photos uploaded!

WunderBlogs® & News

Nearby

Air Quality

  Air Quality AQ Index Pollutant
Not available.

Snow Depth

Station Depth Elevation

Earthquake Activity

City Distance Mag. Time & Date
Minimum magnitude displayed is 2.5.

Coastal Water Temperatures

Place Temperature

Stations

Nearby Weather Stations

Station Location Temp. Windchill Dew Point Humidity Wind Precip. Elev Updated Type